Time;durP1;ratioP1;P1;durP2;ratioP2;P2;SDS_P1;SDS_P2;PMS_P1;PMS_P2;Temp;Humidity;BMP_temperature;BMP_pressure;BME280_temperature;BME280_humidity;BME280_pressure;Samples;Min_cycle;Max_cycle;Signal;HPM_P1;HPM_P2
2022/06/10 00:01:44;;;;;;;2.47;0.70;;;;;;;;;;4991691;28;20144;-51
2022/06/10 00:04:10;;;;;;;1.80;0.52;;;;;;;;;;4993225;28;20062;-53
2022/06/10 00:06:36;;;;;;;1.70;0.63;;;;;;;;;;4992336;28;20037;-54
2022/06/10 00:09:03;;;;;;;1.23;0.90;;;;;;;;;;4990312;28;20026;-54
2022/06/10 00:11:29;;;;;;;2.35;0.68;;;;;;;;;;4991698;28;20022;-53
2022/06/10 00:13:55;;;;;;;2.13;1.25;;;;;;;;;;4993221;28;20439;-55
2022/06/10 00:16:22;;;;;;;3.25;0.60;;;;;;;;;;4991432;28;20026;-57
2022/06/10 00:18:48;;;;;;;1.73;0.63;;;;;;;;;;4989915;28;20041;-55
2022/06/10 00:21:15;;;;;;;1.35;0.73;;;;;;;;;;4991386;28;20041;-56
2022/06/10 00:23:41;;;;;;;1.45;0.60;;;;;;;;;;4993204;28;20034;-56
2022/06/10 00:26:08;;;;;;;3.58;0.82;;;;;;;;;;4988670;28;20037;-55
2022/06/10 00:28:34;;;;;;;4.57;1.15;;;;;;;;;;4991574;28;20031;-55
2022/06/10 00:31:00;;;;;;;1.60;0.70;;;;;;;;;;4990617;28;20365;-54
2022/06/10 00:33:26;;;;;;;1.77;0.60;;;;;;;;;;4992750;28;20045;-54
2022/06/10 00:35:52;;;;;;;1.50;0.70;;;;;;;;;;4989901;28;20026;-51
2022/06/10 00:38:19;;;;;;;2.60;0.80;;;;;;;;;;4992606;28;20045;-54
2022/06/10 00:40:54;;;;;;;1.90;0.95;;;;;;;;;;4993405;28;20106;-49
2022/06/10 00:43:22;;;;;;;1.75;1.00;;;;;;;;;;4997292;28;20041;-50
2022/06/10 00:45:57;;;;;;;3.83;0.60;;;;;;;;;;5005225;28;20430;-53
2022/06/10 00:48:36;;;;;;;2.72;0.70;;;;;;;;;;5021853;28;20383;-54
2022/06/10 00:51:09;;;;;;;1.95;0.55;;;;;;;;;;5024106;28;20022;-51
2022/06/10 00:53:35;;;;;;;2.40;0.63;;;;;;;;;;5017935;28;20025;-54
2022/06/10 00:56:05;;;;;;;1.95;0.90;;;;;;;;;;5022376;28;20030;-56
2022/06/10 00:58:37;;;;;;;2.22;0.60;;;;;;;;;;5024738;28;20022;-53
2022/06/10 01:01:03;;;;;;;1.30;0.57;;;;;;;;;;5018024;28;20033;-55
2022/06/10 01:03:30;;;;;;;1.95;0.77;;;;;;;;;;5015904;28;20447;-56
2022/06/10 01:05:56;;;;;;;1.58;0.60;;;;;;;;;;5014934;28;20071;-56
2022/06/10 01:08:22;;;;;;;1.38;0.73;;;;;;;;;;5016248;28;20101;-57
2022/06/10 01:10:48;;;;;;;1.23;0.47;;;;;;;;;;5014544;28;20036;-56
2022/06/10 01:13:23;;;;;;;1.70;0.57;;;;;;;;;;5013555;28;20030;-56
2022/06/10 01:15:48;;;;;;;1.15;0.70;;;;;;;;;;5012139;28;20030;-56
2022/06/10 01:18:44;;;;;;;1.58;0.60;;;;;;;;;;5015920;28;20029;-55
2022/06/10 01:21:28;;;;;;;1.40;0.50;;;;;;;;;;5012549;28;20034;-55
2022/06/10 01:24:13;;;;;;;2.25;0.70;;;;;;;;;;5008429;28;20494;-52
2022/06/10 01:29:46;;;;;;;1.02;0.50;;;;;;;;;;5014145;28;20077;-50
2022/06/10 01:32:23;;;;;;;1.65;0.80;;;;;;;;;;5012798;28;20033;-51
2022/06/10 01:35:16;;;;;;;2.50;0.60;;;;;;;;;;5015707;28;20046;-51
2022/06/10 01:38:18;;;;;;;1.88;0.70;;;;;;;;;;5015087;28;20037;-55
2022/06/10 01:41:19;;;;;;;0.50;0.30;;;;;;;;;;4946654;29;20040;-54
2022/06/10 01:44:05;;;;;;;2.03;0.70;;;;;;;;;;4934360;29;20557;-53
2022/06/10 01:46:33;;;;;;;1.33;0.60;;;;;;;;;;5007579;28;20293;-53
2022/06/10 01:49:17;;;;;;;2.03;0.57;;;;;;;;;;5014240;28;20391;-51
2022/06/10 01:51:44;;;;;;;1.90;0.57;;;;;;;;;;4996436;28;20419;-54
2022/06/10 01:54:16;;;;;;;1.33;0.70;;;;;;;;;;5007378;28;20029;-54
2022/06/10 01:56:44;;;;;;;1.30;0.52;;;;;;;;;;5012556;28;20116;-55
2022/06/10 01:59:21;;;;;;;0.95;0.50;;;;;;;;;;5012535;28;20034;-55
2022/06/10 02:01:58;;;;;;;0.77;0.50;;;;;;;;;;5014850;28;20037;-56
2022/06/10 02:04:28;;;;;;;1.40;0.60;;;;;;;;;;5010862;28;20026;-55
2022/06/10 02:07:03;;;;;;;1.02;0.57;;;;;;;;;;5016780;28;20040;-54
2022/06/10 02:09:31;;;;;;;0.95;0.70;;;;;;;;;;5026456;28;20062;-50
2022/06/10 02:12:01;;;;;;;1.52;0.63;;;;;;;;;;5026299;28;20034;-55
2022/06/10 02:14:32;;;;;;;3.03;0.90;;;;;;;;;;5020527;28;20556;-53
2022/06/10 02:16:58;;;;;;;;;;;;;;;;;;5010684;28;20160;-54
2022/06/10 02:19:27;;;;;;;6.03;1.27;;;;;;;;;;5025431;28;20410;-54
2022/06/10 02:21:56;;;;;;;3.20;0.80;;;;;;;;;;5021125;28;20032;-56
2022/06/10 02:24:24;;;;;;;1.30;0.60;;;;;;;;;;5017458;28;20080;-55
2022/06/10 02:26:51;;;;;;;1.38;0.70;;;;;;;;;;5013847;28;20383;-58
2022/06/10 02:29:20;;;;;;;2.60;0.80;;;;;;;;;;5021042;28;20116;-55
2022/06/10 02:31:52;;;;;;;2.28;0.70;;;;;;;;;;5014306;28;20549;-56
2022/06/10 02:34:19;;;;;;;1.83;0.70;;;;;;;;;;5008209;28;20030;-56
2022/06/10 02:36:50;;;;;;;2.03;1.05;;;;;;;;;;5021333;28;20108;-54
2022/06/10 02:39:36;;;;;;;1.10;0.68;;;;;;;;;;5018501;28;20029;-54
2022/06/10 02:42:05;;;;;;;1.40;0.52;;;;;;;;;;5013424;28;20042;-55
2022/06/10 02:44:39;;;;;;;0.90;0.57;;;;;;;;;;5024845;28;20029;-56
2022/06/10 02:47:11;;;;;;;0.85;0.75;;;;;;;;;;5018109;28;20046;-54
2022/06/10 02:49:37;;;;;;;1.90;0.57;;;;;;;;;;5018307;28;20037;-55
2022/06/10 02:52:04;;;;;;;2.10;1.17;;;;;;;;;;5014132;28;20080;-52
2022/06/10 02:54:31;;;;;;;1.58;0.73;;;;;;;;;;5009105;28;20113;-54
2022/06/10 02:56:58;;;;;;;1.60;0.50;;;;;;;;;;5008998;28;20133;-54
2022/06/10 03:02:15;;;;;;;2.50;0.60;;;;;;;;;;5003588;28;20478;-55
2022/06/10 03:05:06;;;;;;;2.90;0.85;;;;;;;;;;5005656;28;20080;-56
2022/06/10 03:07:41;;;;;;;2.13;0.65;;;;;;;;;;5013628;28;20037;-56
2022/06/10 03:10:07;;;;;;;2.58;0.60;;;;;;;;;;5013575;28;20034;-55
2022/06/10 03:12:43;;;;;;;1.65;0.70;;;;;;;;;;5007526;28;20034;-56
2022/06/10 03:15:12;;;;;;;1.25;0.68;;;;;;;;;;5013515;28;20507;-55
2022/06/10 03:17:44;;;;;;;1.98;0.75;;;;;;;;;;5013339;28;20055;-56
2022/06/10 03:20:30;;;;;;;2.25;0.70;;;;;;;;;;5000152;28;20030;-55
2022/06/10 03:23:22;;;;;;;1.30;0.47;;;;;;;;;;5011890;28;20479;-56
2022/06/10 03:25:53;;;;;;;1.75;0.60;;;;;;;;;;5005566;28;20706;-55
2022/06/10 03:28:38;;;;;;;3.40;0.82;;;;;;;;;;5013988;28;20028;-56
2022/06/10 03:31:15;;;;;;;1.30;0.80;;;;;;;;;;5008350;28;20026;-57
2022/06/10 03:33:59;;;;;;;2.33;0.70;;;;;;;;;;5009519;28;20030;-54
2022/06/10 03:36:26;;;;;;;2.13;1.17;;;;;;;;;;5002763;28;20030;-51
2022/06/10 03:38:53;;;;;;;1.13;0.70;;;;;;;;;;5005776;28;20048;-55
2022/06/10 03:41:21;;;;;;;1.13;0.60;;;;;;;;;;5010660;28;20037;-54
2022/06/10 03:43:47;;;;;;;2.95;0.80;;;;;;;;;;5011623;28;20026;-53
2022/06/10 03:46:13;;;;;;;2.70;0.70;;;;;;;;;;5009839;28;20120;-54
2022/06/10 03:48:41;;;;;;;0.88;0.50;;;;;;;;;;5008049;28;20065;-55
2022/06/10 03:51:10;;;;;;;1.52;0.70;;;;;;;;;;5011578;28;20064;-53
2022/06/10 03:53:36;;;;;;;1.88;1.05;;;;;;;;;;5017126;28;20375;-50
2022/06/10 03:56:02;;;;;;;2.22;0.63;;;;;;;;;;5020830;28;20032;-50
2022/06/10 03:58:28;;;;;;;3.47;0.70;;;;;;;;;;5019184;28;20029;-54
2022/06/10 04:00:56;;;;;;;2.70;1.05;;;;;;;;;;5018585;28;20533;-50
2022/06/10 04:03:22;;;;;;;2.17;0.70;;;;;;;;;;5012972;28;20105;-52
2022/06/10 04:05:48;;;;;;;1.63;1.00;;;;;;;;;;5013036;28;20514;-54
2022/06/10 04:08:14;;;;;;;1.85;0.70;;;;;;;;;;5009293;28;20026;-55
2022/06/10 04:10:40;;;;;;;2.13;0.75;;;;;;;;;;5011121;28;20080;-54
2022/06/10 04:13:07;;;;;;;1.67;0.88;;;;;;;;;;5009019;28;20033;-51
2022/06/10 04:15:33;;;;;;;1.33;0.60;;;;;;;;;;5012618;28;20026;-53
2022/06/10 04:17:59;;;;;;;2.67;0.85;;;;;;;;;;5012786;28;20110;-53
2022/06/10 04:20:27;;;;;;;1.50;0.60;;;;;;;;;;5010538;28;20109;-56
2022/06/10 04:22:53;;;;;;;1.77;0.70;;;;;;;;;;5012774;28;20026;-55
2022/06/10 04:25:20;;;;;;;0.88;0.65;;;;;;;;;;5012208;28;20045;-55
2022/06/10 04:27:46;;;;;;;2.97;0.88;;;;;;;;;;5009383;28;20105;-55
2022/06/10 04:30:32;;;;;;;3.13;0.73;;;;;;;;;;5006445;28;20475;-55
2022/06/10 04:32:59;;;;;;;4.43;0.90;;;;;;;;;;5010619;28;20030;-55
2022/06/10 04:35:26;;;;;;;2.25;0.95;;;;;;;;;;5010671;28;20026;-56
2022/06/10 04:37:52;;;;;;;1.73;0.80;;;;;;;;;;5010035;28;20041;-58
2022/06/10 04:40:20;;;;;;;1.20;0.60;;;;;;;;;;5011844;28;20033;-58
2022/06/10 04:42:47;;;;;;;1.70;0.60;;;;;;;;;;5010821;28;20044;-58
2022/06/10 04:45:14;;;;;;;2.90;1.00;;;;;;;;;;5003852;28;20080;-57
2022/06/10 04:47:40;;;;;;;2.42;0.60;;;;;;;;;;4968571;28;20039;-57
2022/06/10 04:50:07;;;;;;;1.80;0.98;;;;;;;;;;4975798;28;20030;-57
2022/06/10 04:52:34;;;;;;;1.50;0.85;;;;;;;;;;4974948;28;20468;-58
2022/06/10 04:55:00;;;;;;;1.67;0.70;;;;;;;;;;4970073;28;20030;-58
2022/06/10 04:57:26;;;;;;;2.05;0.90;;;;;;;;;;4980849;28;20371;-57
2022/06/10 04:59:53;;;;;;;3.92;0.85;;;;;;;;;;4977879;28;20031;-58
2022/06/10 05:02:19;;;;;;;2.80;0.75;;;;;;;;;;4972352;28;20396;-58
2022/06/10 05:04:44;;;;;;;2.17;0.77;;;;;;;;;;4978433;28;20072;-57
2022/06/10 05:07:11;;;;;;;1.48;0.93;;;;;;;;;;4973625;28;20535;-58
2022/06/10 05:09:37;;;;;;;1.88;0.98;;;;;;;;;;4971281;28;20066;-57
2022/06/10 05:12:03;;;;;;;3.05;1.00;;;;;;;;;;4969967;28;20042;-57
2022/06/10 05:14:29;;;;;;;3.53;1.02;;;;;;;;;;4973739;28;20081;-56
2022/06/10 05:16:56;;;;;;;1.33;0.82;;;;;;;;;;4972744;28;20051;-56
2022/06/10 05:19:22;;;;;;;3.03;1.30;;;;;;;;;;4969793;28;20038;-56
2022/06/10 05:21:48;;;;;;;2.22;0.80;;;;;;;;;;4970649;28;20046;-55
2022/06/10 05:24:14;;;;;;;4.40;1.05;;;;;;;;;;4974689;28;20504;-57
2022/06/10 05:26:40;;;;;;;2.67;1.08;;;;;;;;;;4975112;28;20035;-57
2022/06/10 05:29:06;;;;;;;1.73;0.80;;;;;;;;;;4974442;28;20031;-57
2022/06/10 05:31:32;;;;;;;3.03;0.82;;;;;;;;;;4975665;28;20380;-56
2022/06/10 05:36:43;;;;;;;2.10;0.90;;;;;;;;;;4975758;28;20077;-57
2022/06/10 05:39:09;;;;;;;4.22;0.98;;;;;;;;;;4969146;28;20046;-57
2022/06/10 05:44:20;;;;;;;2.72;1.00;;;;;;;;;;4975985;28;20138;-56
2022/06/10 05:46:46;;;;;;;1.60;1.10;;;;;;;;;;5000811;28;20055;-57
2022/06/10 05:49:12;;;;;;;6.70;1.45;;;;;;;;;;5005092;28;20471;-58
2022/06/10 05:51:38;;;;;;;2.45;1.08;;;;;;;;;;5015626;28;20042;-58
2022/06/10 05:54:05;;;;;;;1.83;1.00;;;;;;;;;;5020405;28;20033;-57
2022/06/10 05:56:31;;;;;;;2.88;1.17;;;;;;;;;;5019375;28;20483;-57
2022/06/10 05:58:57;;;;;;;3.13;1.13;;;;;;;;;;5018632;28;20124;-57
2022/06/10 06:01:24;;;;;;;2.20;1.08;;;;;;;;;;5023452;28;20029;-58
2022/06/10 06:03:50;;;;;;;3.28;1.45;;;;;;;;;;5008668;28;20533;-58
2022/06/10 06:06:16;;;;;;;3.53;1.33;;;;;;;;;;5014942;28;20030;-57
2022/06/10 06:08:42;;;;;;;2.42;1.20;;;;;;;;;;5016671;28;20037;-58
2022/06/10 06:11:09;;;;;;;3.28;1.20;;;;;;;;;;5020153;28;20104;-56
2022/06/10 06:13:35;;;;;;;3.35;1.27;;;;;;;;;;5013222;28;20138;-56
2022/06/10 06:16:01;;;;;;;3.30;1.40;;;;;;;;;;5015691;28;20561;-55
2022/06/10 06:18:27;;;;;;;5.20;1.52;;;;;;;;;;5022761;28;20035;-56
2022/06/10 06:20:53;;;;;;;3.97;1.20;;;;;;;;;;5020721;28;20037;-56
2022/06/10 06:23:20;;;;;;;4.13;1.30;;;;;;;;;;5016077;28;20040;-56
2022/06/10 06:25:46;;;;;;;4.30;1.00;;;;;;;;;;5022149;28;20467;-56
2022/06/10 06:28:12;;;;;;;2.60;1.10;;;;;;;;;;5014806;28;20938;-56
2022/06/10 06:30:38;;;;;;;4.97;1.42;;;;;;;;;;5014307;28;20088;-55
2022/06/10 06:33:07;;;;;;;2.92;1.30;;;;;;;;;;5014067;28;20047;-56
2022/06/10 06:35:35;;;;;;;7.75;1.80;;;;;;;;;;5009528;28;20033;-56
2022/06/10 06:38:01;;;;;;;4.10;2.13;;;;;;;;;;5011866;28;20045;-57
2022/06/10 06:40:27;;;;;;;6.53;1.70;;;;;;;;;;5007166;28;20030;-57
2022/06/10 06:42:53;;;;;;;4.35;2.08;;;;;;;;;;5009497;28;20463;-57
2022/06/10 06:45:19;;;;;;;8.45;2.38;;;;;;;;;;5013450;28;20040;-54
2022/06/10 06:47:46;;;;;;;2.97;1.52;;;;;;;;;;5012861;28;20026;-53
2022/06/10 06:50:14;;;;;;;2.85;1.45;;;;;;;;;;5010858;28;20046;-51
2022/06/10 06:52:41;;;;;;;4.57;1.50;;;;;;;;;;5012631;28;20033;-54
2022/06/10 06:55:07;;;;;;;5.63;1.60;;;;;;;;;;5017226;28;20379;-50
2022/06/10 06:57:33;;;;;;;12.23;1.48;;;;;;;;;;5009619;28;20034;-54
2022/06/10 07:00:06;;;;;;;6.72;1.40;;;;;;;;;;5009519;28;20030;-53
2022/06/10 07:02:32;;;;;;;3.65;1.52;;;;;;;;;;5006566;28;20105;-57
2022/06/10 07:04:58;;;;;;;6.72;1.63;;;;;;;;;;5012449;28;20035;-56
2022/06/10 07:07:24;;;;;;;7.75;1.55;;;;;;;;;;5008483;28;20459;-57
2022/06/10 07:09:50;;;;;;;4.32;1.50;;;;;;;;;;5013689;28;20084;-55
2022/06/10 07:12:17;;;;;;;4.72;1.48;;;;;;;;;;5009909;28;20432;-52
2022/06/10 07:14:43;;;;;;;2.47;1.20;;;;;;;;;;5013797;28;20036;-55
2022/06/10 07:17:09;;;;;;;5.85;1.70;;;;;;;;;;5007013;28;20038;-55
2022/06/10 07:19:35;;;;;;;6.03;1.15;;;;;;;;;;5010399;28;20030;-54
2022/06/10 07:22:01;;;;;;;2.85;1.30;;;;;;;;;;5010622;28;20518;-55
2022/06/10 07:24:27;;;;;;;4.20;1.02;;;;;;;;;;5012477;28;20025;-52
2022/06/10 07:26:53;;;;;;;5.72;1.13;;;;;;;;;;5007713;28;20033;-55
2022/06/10 07:29:19;;;;;;;3.90;1.23;;;;;;;;;;5009325;28;20025;-51
2022/06/10 07:31:45;;;;;;;4.82;1.98;;;;;;;;;;5005914;28;20033;-55
2022/06/10 07:34:12;;;;;;;6.75;2.13;;;;;;;;;;5009275;28;20022;-56
2022/06/10 07:36:40;;;;;;;3.53;1.42;;;;;;;;;;5009315;28;20057;-54
2022/06/10 07:39:06;;;;;;;3.30;1.15;;;;;;;;;;5006789;28;20045;-57
2022/06/10 07:44:20;;;;;;;4.18;1.55;;;;;;;;;;5013106;28;20041;-50
2022/06/10 07:46:46;;;;;;;3.63;1.10;;;;;;;;;;5008060;28;20045;-53
2022/06/10 07:49:12;;;;;;;6.13;1.95;;;;;;;;;;5009352;28;20030;-54
2022/06/10 07:51:38;;;;;;;6.63;1.38;;;;;;;;;;5010366;28;20147;-55
2022/06/10 07:54:04;;;;;;;4.47;1.20;;;;;;;;;;5011955;28;20021;-52
2022/06/10 07:56:30;;;;;;;4.78;1.48;;;;;;;;;;5010505;28;20149;-53
2022/06/10 07:58:58;;;;;;;6.57;1.60;;;;;;;;;;5011400;28;20125;-62
2022/06/10 08:01:25;;;;;;;6.00;1.75;;;;;;;;;;5011187;28;20026;-62
2022/06/10 08:03:52;;;;;;;4.40;1.48;;;;;;;;;;5004422;28;20026;-62
2022/06/10 08:06:19;;;;;;;7.55;1.80;;;;;;;;;;5009498;28;20384;-60
2022/06/10 08:08:45;;;;;;;3.25;1.02;;;;;;;;;;5008880;28;20049;-62
2022/06/10 08:11:11;;;;;;;4.32;1.23;;;;;;;;;;5008741;28;20083;-63
2022/06/10 08:13:37;;;;;;;4.60;1.30;;;;;;;;;;5010395;28;20034;-62
2022/06/10 08:16:03;;;;;;;1.58;0.93;;;;;;;;;;5011456;28;20375;-65
2022/06/10 08:18:31;;;;;;;8.00;1.20;;;;;;;;;;5008597;28;20049;-65
2022/06/10 08:23:42;;;;;;;3.95;1.23;;;;;;;;;;5010587;28;20040;-65
2022/06/10 08:26:09;;;;;;;3.58;1.30;;;;;;;;;;5007462;28;20029;-65
2022/06/10 08:28:40;;;;;;;3.20;1.42;;;;;;;;;;5005942;28;20664;-65
2022/06/10 08:31:06;;;;;;;3.75;0.90;;;;;;;;;;5010924;28;20096;-64
2022/06/10 08:33:32;;;;;;;4.07;1.50;;;;;;;;;;5008892;28;20026;-65
2022/06/10 08:35:59;;;;;;;4.43;1.08;;;;;;;;;;5010941;28;20057;-65
2022/06/10 08:38:25;;;;;;;2.97;0.90;;;;;;;;;;5010121;28;20048;-65
2022/06/10 08:40:58;;;;;;;7.38;1.38;;;;;;;;;;5010226;28;20098;-65
2022/06/10 08:43:39;;;;;;;4.00;1.00;;;;;;;;;;5009104;28;20022;-64
2022/06/10 08:46:18;;;;;;;4.18;1.10;;;;;;;;;;5010809;28;20061;-64
2022/06/10 08:48:53;;;;;;;4.47;1.30;;;;;;;;;;5006478;28;20105;-65
2022/06/10 08:51:28;;;;;;;5.97;1.23;;;;;;;;;;5009960;28;20022;-61
2022/06/10 08:54:14;;;;;;;3.88;1.65;;;;;;;;;;5011013;28;20018;-64
2022/06/10 08:56:41;;;;;;;3.63;1.38;;;;;;;;;;5009861;28;20587;-63
2022/06/10 08:59:19;;;;;;;5.82;1.50;;;;;;;;;;5012310;28;20041;-64
2022/06/10 09:02:05;;;;;;;2.83;1.10;;;;;;;;;;5008393;28;20499;-64
2022/06/10 09:04:55;;;;;;;4.90;1.48;;;;;;;;;;5014001;28;20026;-65
2022/06/10 09:07:40;;;;;;;2.95;1.00;;;;;;;;;;5014324;28;20030;-60
2022/06/10 09:10:07;;;;;;;4.30;1.23;;;;;;;;;;5014106;28;20141;-64
2022/06/10 09:12:36;;;;;;;4.90;1.00;;;;;;;;;;5013760;28;20022;-64
2022/06/10 09:15:03;;;;;;;2.40;0.98;;;;;;;;;;5014137;28;20057;-64
2022/06/10 09:17:33;;;;;;;5.88;1.17;;;;;;;;;;5004058;28;20117;-65
2022/06/10 09:20:02;;;;;;;3.97;0.93;;;;;;;;;;5010666;28;20037;-64
2022/06/10 09:22:31;;;;;;;3.03;1.02;;;;;;;;;;5012712;28;20389;-64
2022/06/10 09:25:17;;;;;;;4.38;0.95;;;;;;;;;;5014640;28;20026;-65
2022/06/10 09:27:47;;;;;;;6.40;1.50;;;;;;;;;;5002948;28;20030;-64
2022/06/10 09:30:16;;;;;;;5.00;1.13;;;;;;;;;;5010863;28;20030;-64
2022/06/10 09:33:04;;;;;;;3.85;1.05;;;;;;;;;;5012577;28;20018;-64
2022/06/10 09:35:53;;;;;;;1.77;0.90;;;;;;;;;;5013350;28;20026;-64
2022/06/10 09:38:35;;;;;;;1.08;0.77;;;;;;;;;;5013941;28;20041;-60
2022/06/10 09:41:01;;;;;;;2.75;0.93;;;;;;;;;;5014011;28;20061;-64
2022/06/10 09:43:43;;;;;;;4.45;1.30;;;;;;;;;;5002629;28;20065;-64
2022/06/10 09:46:24;;;;;;;1.77;0.95;;;;;;;;;;5006738;28;20384;-64
2022/06/10 09:48:59;;;;;;;2.63;0.98;;;;;;;;;;5011715;28;20041;-64
2022/06/10 09:51:37;;;;;;;4.57;1.08;;;;;;;;;;5001019;28;20476;-62
2022/06/10 09:54:42;;;;;;;2.13;0.90;;;;;;;;;;5008649;28;20490;-63
2022/06/10 09:57:13;;;;;;;2.92;0.93;;;;;;;;;;4912795;29;20036;-63
2022/06/10 09:59:55;;;;;;;3.17;1.00;;;;;;;;;;4911702;29;20071;-65
2022/06/10 10:02:30;;;;;;;2.47;0.63;;;;;;;;;;4911955;29;20722;-60
2022/06/10 10:05:04;;;;;;;3.30;1.00;;;;;;;;;;4912976;29;20040;-63
2022/06/10 10:07:48;;;;;;;2.05;1.10;;;;;;;;;;4909208;29;20070;-62
2022/06/10 10:10:14;;;;;;;3.00;0.95;;;;;;;;;;4910160;29;20044;-62
2022/06/10 10:12:46;;;;;;;3.05;1.10;;;;;;;;;;4913518;29;20240;-63
2022/06/10 10:15:25;;;;;;;4.13;1.63;;;;;;;;;;4912352;29;20043;-62
2022/06/10 10:18:11;;;;;;;2.78;1.05;;;;;;;;;;4911377;29;20028;-63
2022/06/10 10:20:45;;;;;;;2.53;1.10;;;;;;;;;;4913088;29;20056;-62
2022/06/10 10:23:11;;;;;;;3.22;1.17;;;;;;;;;;4914450;29;20040;-63
2022/06/10 10:25:38;;;;;;;1.98;0.90;;;;;;;;;;4913300;29;20032;-63
2022/06/10 10:28:13;;;;;;;2.78;1.00;;;;;;;;;;4970500;28;20547;-63
2022/06/10 10:30:46;;;;;;;2.30;1.23;;;;;;;;;;5012103;28;20037;-63
2022/06/10 10:33:14;;;;;;;4.05;1.42;;;;;;;;;;5008193;28;20104;-63
2022/06/10 10:35:42;;;;;;;3.33;1.30;;;;;;;;;;5012260;28;20022;-63
2022/06/10 10:38:10;;;;;;;2.15;0.95;;;;;;;;;;5008445;28;20049;-63
2022/06/10 10:40:41;;;;;;;2.40;1.25;;;;;;;;;;5011735;28;20113;-63
2022/06/10 10:43:12;;;;;;;4.20;1.05;;;;;;;;;;5013241;28;20080;-63
2022/06/10 10:45:39;;;;;;;2.63;0.97;;;;;;;;;;5011979;28;20129;-63
2022/06/10 10:48:17;;;;;;;5.70;1.30;;;;;;;;;;5019497;28;20033;-64
2022/06/10 10:50:52;;;;;;;5.55;1.27;;;;;;;;;;5007454;28;20097;-67
2022/06/10 10:53:21;;;;;;;4.30;1.50;;;;;;;;;;5001467;28;20068;-64
2022/06/10 10:55:50;;;;;;;4.95;1.27;;;;;;;;;;5011341;28;20057;-65
2022/06/10 10:58:22;;;;;;;3.42;1.23;;;;;;;;;;5011463;28;20033;-65
2022/06/10 11:01:59;;;;;;;5.57;1.73;;;;;;;;;;5012173;28;20068;-64
2022/06/10 11:04:01;;;;;;;3.17;1.20;;;;;;;;;;4995533;28;20045;-63
2022/06/10 11:06:36;;;;;;;2.75;1.20;;;;;;;;;;5009771;28;20434;-64
2022/06/10 11:09:17;;;;;;;2.17;0.82;;;;;;;;;;5011753;28;20030;-65
2022/06/10 11:11:44;;;;;;;4.72;1.35;;;;;;;;;;5010501;28;20479;-64
2022/06/10 11:14:29;;;;;;;2.95;1.20;;;;;;;;;;5011522;28;20463;-64
2022/06/10 11:17:01;;;;;;;2.90;1.00;;;;;;;;;;4994168;28;20450;-64
2022/06/10 11:19:33;;;;;;;4.07;0.90;;;;;;;;;;5009708;28;20117;-64
2022/06/10 11:22:02;;;;;;;2.20;1.00;;;;;;;;;;5011948;28;20097;-65
2022/06/10 11:24:31;;;;;;;1.92;0.90;;;;;;;;;;5010682;28;20633;-64
2022/06/10 11:26:58;;;;;;;3.03;1.17;;;;;;;;;;5012013;28;20025;-65
2022/06/10 11:29:25;;;;;;;1.63;1.05;;;;;;;;;;5008889;28;20026;-60
2022/06/10 11:31:53;;;;;;;2.15;0.90;;;;;;;;;;5011314;28;20506;-65
2022/06/10 11:34:22;;;;;;;1.98;0.82;;;;;;;;;;5011836;28;20032;-65
2022/06/10 11:36:49;;;;;;;1.90;0.90;;;;;;;;;;5002537;28;20033;-64
2022/06/10 11:39:15;;;;;;;1.88;0.85;;;;;;;;;;5010575;28;20427;-64
2022/06/10 11:41:41;;;;;;;2.20;0.90;;;;;;;;;;5011644;28;20025;-65
2022/06/10 11:44:07;;;;;;;2.65;1.10;;;;;;;;;;5008834;28;20074;-65
2022/06/10 11:46:52;;;;;;;1.80;0.80;;;;;;;;;;5010979;28;20113;-65
2022/06/10 11:49:28;;;;;;;2.25;1.00;;;;;;;;;;5010698;28;20026;-65
2022/06/10 11:51:57;;;;;;;2.25;1.00;;;;;;;;;;5011120;28;20088;-64
2022/06/10 11:54:41;;;;;;;2.75;1.33;;;;;;;;;;5007226;28;20026;-60
2022/06/10 12:00:19;;;;;;;3.03;1.10;;;;;;;;;;5006615;28;20041;-65
2022/06/10 12:03:04;;;;;;;1.75;1.00;;;;;;;;;;5010367;28;20104;-64
2022/06/10 12:05:39;;;;;;;3.50;0.90;;;;;;;;;;5010578;28;20025;-64
2022/06/10 12:08:11;;;;;;;1.75;0.80;;;;;;;;;;5011306;28;20037;-64
2022/06/10 12:10:57;;;;;;;3.15;1.45;;;;;;;;;;5010625;28;20128;-65
2022/06/10 12:13:24;;;;;;;3.22;1.10;;;;;;;;;;5006682;28;20029;-60
2022/06/10 12:15:58;;;;;;;1.98;1.13;;;;;;;;;;5010991;28;20026;-64
2022/06/10 12:18:26;;;;;;;1.45;0.80;;;;;;;;;;5010597;28;20022;-61
2022/06/10 12:21:01;;;;;;;3.20;1.00;;;;;;;;;;5005581;28;20029;-64
2022/06/10 12:23:28;;;;;;;3.33;1.02;;;;;;;;;;5010246;28;20025;-60
2022/06/10 12:25:58;;;;;;;1.25;0.90;;;;;;;;;;5009109;28;20064;-64
2022/06/10 12:28:34;;;;;;;2.50;0.80;;;;;;;;;;5006153;28;20030;-60
2022/06/10 12:31:12;;;;;;;1.88;1.20;;;;;;;;;;5008299;28;20080;-64
2022/06/10 12:33:47;;;;;;;1.95;0.80;;;;;;;;;;5009588;28;20042;-62
2022/06/10 12:36:17;;;;;;;2.05;1.10;;;;;;;;;;5013670;28;20022;-64
2022/06/10 12:38:45;;;;;;;2.58;1.23;;;;;;;;;;5013842;28;20045;-64
2022/06/10 12:41:10;;;;;;;2.30;0.85;;;;;;;;;;5008777;28;20037;-63
2022/06/10 12:43:38;;;;;;;4.38;0.93;;;;;;;;;;5013820;28;20026;-64
2022/06/10 12:46:06;;;;;;;1.80;0.75;;;;;;;;;;5008264;28;20046;-64
2022/06/10 12:48:34;;;;;;;3.00;0.93;;;;;;;;;;5009438;28;20058;-64
2022/06/10 12:51:01;;;;;;;2.13;0.77;;;;;;;;;;5000526;28;20526;-62
2022/06/10 12:53:27;;;;;;;1.77;0.80;;;;;;;;;;5005353;28;20491;-61
2022/06/10 12:55:55;;;;;;;1.83;0.95;;;;;;;;;;5013861;28;20026;-65
2022/06/10 12:58:39;;;;;;;1.65;0.80;;;;;;;;;;5011346;28;20036;-64
2022/06/10 13:01:12;;;;;;;3.30;1.20;;;;;;;;;;5014380;28;20045;-64
2022/06/10 13:03:40;;;;;;;2.33;1.05;;;;;;;;;;5009721;28;20033;-64
2022/06/10 13:06:24;;;;;;;2.50;1.00;;;;;;;;;;5009730;28;20363;-65
2022/06/10 13:08:52;;;;;;;2.47;1.17;;;;;;;;;;5010555;28;20057;-62
2022/06/10 13:11:37;;;;;;;1.67;0.85;;;;;;;;;;5014430;28;20129;-64
2022/06/10 13:14:16;;;;;;;2.25;1.20;;;;;;;;;;5013629;28;20022;-64
2022/06/10 13:16:45;;;;;;;2.05;0.82;;;;;;;;;;5011513;28;20025;-64
2022/06/10 13:19:27;;;;;;;2.28;1.25;;;;;;;;;;5013205;28;20045;-64
2022/06/10 13:21:53;;;;;;;2.40;1.17;;;;;;;;;;5012659;28;20054;-64
2022/06/10 13:24:20;;;;;;;2.03;1.02;;;;;;;;;;5014274;28;20065;-64
2022/06/10 13:26:46;;;;;;;1.55;1.10;;;;;;;;;;5010678;28;20077;-62
2022/06/10 13:29:12;;;;;;;2.33;1.00;;;;;;;;;;5010583;28;20036;-64
2022/06/10 13:31:46;;;;;;;2.08;1.13;;;;;;;;;;5011460;28;20116;-65
2022/06/10 13:34:19;;;;;;;2.65;1.10;;;;;;;;;;5013418;28;20026;-65
2022/06/10 13:36:48;;;;;;;3.15;0.95;;;;;;;;;;5005003;28;20026;-65
2022/06/10 13:39:17;;;;;;;3.58;1.10;;;;;;;;;;5011553;28;20042;-64
2022/06/10 13:41:49;;;;;;;2.58;0.90;;;;;;;;;;5013262;28;20073;-64
2022/06/10 13:44:21;;;;;;;7.85;1.58;;;;;;;;;;5010239;28;20511;-51
2022/06/10 13:46:47;;;;;;;4.95;1.30;;;;;;;;;;5005060;28;20640;-52
2022/06/10 13:49:16;;;;;;;3.72;1.30;;;;;;;;;;5013751;28;20097;-51
2022/06/10 13:51:45;;;;;;;3.28;1.23;;;;;;;;;;5008711;28;20467;-51
2022/06/10 13:54:17;;;;;;;1.48;1.30;;;;;;;;;;5006678;28;20023;-59
2022/06/10 13:56:43;;;;;;;1.58;0.95;;;;;;;;;;5009814;28;20085;-59
2022/06/10 13:59:21;;;;;;;2.75;1.23;;;;;;;;;;5010259;28;20056;-58
2022/06/10 14:01:49;;;;;;;5.03;1.70;;;;;;;;;;5013056;28;20034;-58
2022/06/10 14:04:19;;;;;;;3.35;1.40;;;;;;;;;;5008874;28;20023;-57
2022/06/10 14:06:47;;;;;;;3.15;1.15;;;;;;;;;;5012862;28;20032;-56
2022/06/10 14:09:19;;;;;;;6.00;1.60;;;;;;;;;;5008647;28;20535;-57
2022/06/10 14:11:45;;;;;;;3.70;1.63;;;;;;;;;;5009643;28;20033;-57
2022/06/10 14:14:11;;;;;;;3.80;1.67;;;;;;;;;;5008012;28;20026;-57
2022/06/10 14:16:38;;;;;;;2.92;1.52;;;;;;;;;;5012643;28;20025;-57
2022/06/10 14:19:06;;;;;;;4.68;1.23;;;;;;;;;;5012945;28;20029;-56
2022/06/10 14:21:35;;;;;;;1.63;1.27;;;;;;;;;;5010914;28;20033;-58
2022/06/10 14:24:01;;;;;;;4.72;2.35;;;;;;;;;;5006033;28;20431;-57
2022/06/10 14:26:28;;;;;;;2.15;1.40;;;;;;;;;;5013076;28;20486;-58
2022/06/10 14:29:07;;;;;;;3.70;1.42;;;;;;;;;;5012726;28;20025;-58
2022/06/10 14:31:34;;;;;;;2.92;1.15;;;;;;;;;;5011906;28;20428;-58
2022/06/10 14:34:00;;;;;;;4.47;0.90;;;;;;;;;;5012149;28;20165;-58
2022/06/10 14:36:31;;;;;;;3.60;1.40;;;;;;;;;;5012075;28;20057;-58
2022/06/10 14:39:06;;;;;;;1.92;1.10;;;;;;;;;;5005875;28;20081;-58
2022/06/10 14:41:33;;;;;;;4.13;1.10;;;;;;;;;;5012120;28;20026;-58
2022/06/10 14:44:14;;;;;;;2.67;1.10;;;;;;;;;;5011418;28;20022;-58
2022/06/10 14:46:41;;;;;;;5.55;0.90;;;;;;;;;;5011264;28;20052;-58
2022/06/10 14:49:26;;;;;;;1.88;1.00;;;;;;;;;;5012324;28;20079;-57
2022/06/10 14:51:52;;;;;;;3.88;1.50;;;;;;;;;;5011907;28;20030;-56
2022/06/10 14:54:19;;;;;;;4.82;1.05;;;;;;;;;;5012459;28;20060;-57
2022/06/10 14:56:54;;;;;;;1.45;1.13;;;;;;;;;;5010892;28;20030;-57
2022/06/10 14:59:30;;;;;;;3.40;0.93;;;;;;;;;;5011990;28;20164;-57
2022/06/10 15:01:59;;;;;;;2.55;1.23;;;;;;;;;;5008643;28;20375;-57
2022/06/10 15:04:25;;;;;;;4.50;1.40;;;;;;;;;;5013122;28;20025;-56
2022/06/10 15:06:59;;;;;;;3.05;1.25;;;;;;;;;;5010911;28;20053;-56
2022/06/10 15:09:34;;;;;;;4.60;1.20;;;;;;;;;;5008577;28;20026;-57
2022/06/10 15:12:22;;;;;;;3.03;1.20;;;;;;;;;;5008061;28;20349;-57
2022/06/10 15:14:48;;;;;;;1.92;0.98;;;;;;;;;;5008143;28;20034;-57
2022/06/10 15:17:14;;;;;;;2.05;1.00;;;;;;;;;;5012092;28;20033;-56
2022/06/10 15:19:40;;;;;;;2.25;0.90;;;;;;;;;;5007243;28;20034;-57
2022/06/10 15:22:07;;;;;;;3.08;0.90;;;;;;;;;;4992546;28;20072;-57
2022/06/10 15:24:33;;;;;;;2.05;0.90;;;;;;;;;;5011077;28;20740;-57